Latest Weather Observations for Port Fairy

IDV60801

Issued at 7:35 pm EDT Saturday 25 October 2014 (issued every 30 minutes, with the page automatically refreshed every 10 minutes)

About weather observations | Map of weather stations | Latest weather observations for VIC | Other Formats
Station Details ID: 090175 Name: PORT FAIRY AWS Lat: -38.39 Lon: 142.23 Height: 10.0 m
Data from the previous 72 hours. | See also: Recent months at Port Fairy
Date/Time
EDT
Temp
°C
App
Temp
°C
Dew
Point
Rel
Hum
%
Delta-T
°C
Wind Press
QNH
hPa
Press
MSL
hPa
Rain
since 9 am
mm
Dir
 
Spd
km/h
Gust
km/h
Spd
kts
Gust
kts
25/07:30pm 13.7 11.6 9.6 76 2.1 SSE 11 17 6 9 1016.8 1016.8 0.0
25/07:00pm 13.8 11.2 9.3 74 2.3 SSE 13 20 7 11 1016.5 1016.5 0.0
25/06:30pm 14.0 11.4 9.2 73 2.4 SSE 13 20 7 11 1016.4 1016.4 0.0
25/06:00pm 14.4 12.3 9.6 73 2.5 SE 11 17 6 9 1016.4 1016.4 0.0
25/05:30pm 14.6 12.5 9.8 73 2.5 SE 11 17 6 9 1016.4 1016.4 0.0
25/05:00pm 14.9 12.6 10.3 74 2.4 SSE 13 17 7 9 1016.1 1016.1 0.0
25/04:30pm 15.2 12.1 10.4 73 2.5 SSE 17 20 9 11 1016.5 1016.5 0.0
25/04:00pm 15.8 12.2 10.6 71 2.8 SSE 20 28 11 15 1016.3 1016.3 0.0
25/03:30pm 16.2 12.8 10.7 70 2.9 SSE 19 24 10 13 1016.5 1016.5 0.0
25/03:00pm 16.4 13.2 11.1 71 2.8 SSE 19 26 10 14 1016.6 1016.6 0.0
25/02:30pm 15.4 12.2 10.0 70 2.8 S 17 22 9 12 1017.0 1017.0 0.0
25/02:00pm 16.9 14.4 11.0 68 3.2 SSE 15 20 8 11 1017.3 1017.3 0.0
25/01:30pm 15.9 13.2 10.2 69 3.0 SSE 15 20 8 11 1017.3 1017.3 0.0
25/01:00pm 16.5 14.3 10.8 69 3.0 SE 13 17 7 9 1017.6 1017.6 0.0
25/12:30pm 15.5 14.1 10.9 74 2.4 ESE 9 13 5 7 1017.9 1017.9 0.0
25/12:00pm 15.3 13.7 11.5 78 2.0 SE 11 17 6 9 1018.0 1018.0 0.0
25/11:30am 15.7 13.1 12.1 79 2.0 SE 17 20 9 11 1018.1 1018.1 0.0
25/11:00am 14.6 13.0 11.4 81 1.7 SE 11 17 6 9 1017.8 1017.8 0.0
25/10:30am 14.7 11.9 11.3 80 1.8 SE 17 20 9 11 1017.7 1017.7 0.0
25/10:00am 14.4 12.6 11.0 80 1.8 SE 11 15 6 8 1017.8 1017.8 0.0
25/09:30am 14.7 13.1 11.7 82 1.6 SE 11 15 6 8 1018.0 1018.0 0.0
25/09:00am 14.1 12.1 11.6 85 1.3 SE 13 15 7 8 1018.3 1018.3 0.0
25/08:30am 13.5 12.7 11.6 88 1.0 SE 7 13 4 7 1018.2 1018.2 0.0
25/08:00am 13.2 10.8 11.4 89 1.0 ESE 15 19 8 10 1017.9 1017.9 0.0
25/07:30am 13.0 10.2 11.4 90 0.8 SE 17 22 9 12 1017.5 1017.5 0.0
25/07:00am 12.4 9.4 10.6 89 0.9 S 17 20 9 11 1017.3 1017.3 0.0
25/06:30am 12.9 10.8 11.0 88 1.0 SSE 13 17 7 9 1017.0 1017.0 0.0
25/06:00am 12.8 10.3 11.0 89 0.9 SSE 15 19 8 10 1016.9 1016.9 0.0
25/05:30am 12.7 10.5 10.8 88 1.0 S 13 17 7 9 1016.8 1016.8 0.0
25/05:00am 13.3 12.2 10.8 85 1.3 S 7 9 4 5 1016.6 1016.6 0.0
25/04:30am 13.6 12.6 10.4 81 1.7 S 6 13 3 7 1016.4 1016.4 0.0
25/04:00am 13.5 12.0 10.5 82 1.6 SSE 9 17 5 9 1016.1 1016.1 0.0
25/03:30am 13.6 11.7 10.4 81 1.7 S 11 19 6 10 1016.2 1016.2 0.0
25/03:00am 14.0 11.9 9.8 76 2.2 S 11 17 6 9 1016.2 1016.2 0.0
25/02:30am 14.0 12.3 10.0 77 2.1 SSW 9 13 5 7 1016.4 1016.4 0.0
25/02:00am 14.0 11.6 10.2 78 2.0 S 13 19 7 10 1016.7 1016.7 0.0
25/01:30am 14.1 11.8 10.5 79 1.9 SSW 13 17 7 9 1016.9 1016.9 0.0
25/01:00am 13.9 12.0 10.5 80 1.8 S 11 17 6 9 1017.2 1017.2 0.0
25/12:30am 13.7 10.8 11.0 84 1.4 SSW 17 26 9 14 1017.2 1017.2 0.0
25/12:00am 13.5 11.1 11.4 87 1.1 SW 15 19 8 10 1017.0 1017.0 0.0
 
Date/Time
EDT
Temp
°C
App
Temp
°C
Dew
Point
Rel
Hum
%
Delta-T
°C
Wind Press
QNH
hPa
Press
MSL
hPa
Rain
since 9 am
mm
Dir
 
Spd
km/h
Gust
km/h
Spd
kts
Gust
kts
24/11:30pm 13.8 11.9 11.7 87 1.1 SW 13 17 7 9 1017.0 1017.0 0.0
24/11:00pm 13.9 10.2 11.6 86 1.2 SW 22 28 12 15 1016.8 1016.8 0.0
24/10:30pm 14.4 10.1 10.8 79 1.9 WSW 24 32 13 17 1016.5 1016.5 0.0
24/10:00pm 14.4 10.9 11.0 80 1.8 WSW 20 30 11 16 1016.4 1016.4 0.0
24/09:30pm 14.3 10.0 10.9 80 1.8 WSW 24 33 13 18 1016.2 1016.2 0.0
24/09:00pm 14.5 9.3 11.5 82 1.6 WSW 30 39 16 21 1015.7 1015.7 0.0
24/08:30pm 14.5 9.7 11.5 82 1.6 WSW 28 35 15 19 1015.3 1015.3 0.0
24/08:00pm 14.5 9.3 11.5 82 1.6 WSW 30 41 16 22 1014.9 1014.9 0.0
24/07:30pm 14.8 9.3 11.8 82 1.6 WSW 32 43 17 23 1014.5 1014.5 0.0
24/07:00pm 15.1 9.6 11.9 81 1.7 WSW 32 39 17 21 1014.1 1014.1 0.0
24/06:30pm 15.9 10.9 12.3 79 2.0 WSW 30 41 16 22 1013.6 1013.6 0.0
24/06:00pm 15.9 10.0 12.3 79 2.0 WSW 35 48 19 26 1013.3 1013.3 0.0
24/05:30pm 16.0 8.6 12.4 79 2.0 WSW 43 52 23 28 1012.9 1012.9 0.0
24/05:00pm 16.4 9.9 12.9 80 1.9 WSW 39 50 21 27 1012.4 1012.4 0.0
24/04:30pm 16.9 10.9 13.4 80 2.0 WSW 37 46 20 25 1012.4 1012.4 0.0
24/04:00pm 16.9 10.9 13.2 79 2.1 WSW 37 46 20 25 1012.2 1012.2 0.0
24/03:30pm 17.1 10.7 13.2 78 2.2 WSW 39 48 21 26 1011.8 1011.8 0.0
24/03:00pm 17.9 13.4 13.8 77 2.3 WSW 30 39 16 21 1011.6 1011.6 0.0
24/02:30pm 18.0 13.6 14.1 78 2.2 WSW 30 37 16 20 1011.6 1011.6 0.0
24/02:00pm 18.2 14.4 14.7 80 2.0 WSW 28 35 15 19 1011.8 1011.8 0.0
24/01:30pm 17.6 13.3 14.3 81 1.9 WSW 30 37 16 20 1011.9 1011.9 0.0
24/01:00pm 17.7 13.0 14.2 80 2.0 WSW 32 39 17 21 1012.1 1012.1 0.0
24/12:30pm 19.3 17.2 15.2 77 2.4 WSW 20 32 11 17 1012.1 1012.1 0.0
24/12:00pm 19.0 16.8 14.3 74 2.7 WSW 19 24 10 13 1012.0 1012.0 0.0
24/11:30am 19.8 17.6 14.4 71 3.1 WSW 19 22 10 12 1011.8 1011.8 0.0
24/11:00am 20.6 18.7 15.8 74 2.9 WSW 20 28 11 15 1012.3 1012.3 0.0
24/10:30am 18.9 18.0 13.7 72 3.0 SW 11 17 6 9 1011.7 1011.7 0.0
24/10:00am 20.1 20.7 15.7 76 2.6 NNW 7 15 4 8 1011.5 1011.5 0.0
24/09:30am 17.7 17.2 15.0 84 1.6 NNW 11 17 6 9 1011.9 1011.9 0.0
24/09:00am 16.9 16.7 14.7 87 1.3 N 9 15 5 8 1011.9 1011.9 0.0
24/08:30am 15.7 14.9 14.1 90 0.9 N 11 19 6 10 1012.0 1012.0 0.0
24/08:00am 15.0 14.8 13.5 91 0.8 N 7 13 4 7 1011.7 1011.7 0.0
24/07:30am 14.4 13.6 13.0 91 0.8 NNE 9 13 5 7 1011.7 1011.7 0.0
24/07:00am 14.4 13.6 12.8 90 0.9 NNE 9 15 5 8 1011.6 1011.6 0.0
24/06:30am 14.7 13.9 12.9 89 1.0 NNE 9 13 5 7 1011.6 1011.6 0.0
24/06:00am 14.9 13.4 13.1 89 1.0 NE 13 20 7 11 1011.4 1011.4 0.0
24/05:30am 15.1 13.6 13.1 88 1.1 NNE 13 19 7 10 1011.6 1011.6 0.0
24/05:00am 15.2 13.7 13.1 87 1.2 NNE 13 20 7 11 1011.7 1011.7 0.0
24/04:30am 15.2 12.9 13.1 87 1.2 NE 17 28 9 15 1011.7 1011.7 0.0
24/04:00am 15.3 13.1 13.2 87 1.2 NE 17 26 9 14 1011.9 1011.9 0.0
24/03:30am 15.4 13.9 13.1 86 1.3 ENE 13 22 7 12 1012.2 1012.2 0.0
24/03:00am 15.5 13.6 13.0 85 1.4 ENE 15 28 8 15 1012.6 1012.6 0.0
24/02:30am 15.7 13.9 13.2 85 1.4 ENE 15 24 8 13 1013.0 1013.0 0.0
24/02:00am 15.8 13.6 13.3 85 1.4 ENE 17 26 9 14 1013.5 1013.5 0.0
24/01:30am 15.9 13.4 13.4 85 1.4 NE 19 28 10 15 1013.7 1013.7 0.0
24/01:00am 16.1 14.0 13.6 85 1.4 ENE 17 28 9 15 1014.0 1014.0 0.0
24/12:30am 16.0 14.3 13.5 85 1.4 ENE 15 22 8 12 1014.6 1014.6 0.0
24/12:00am 16.1 13.9 13.4 84 1.5 E 17 26 9 14 1015.0 1015.0 0.0
 
Date/Time
EDT
Temp
°C
App
Temp
°C
Dew
Point
Rel
Hum
%
Delta-T
°C
Wind Press
QNH
hPa
Press
MSL
hPa
Rain
since 9 am
mm
Dir
 
Spd
km/h
Gust
km/h
Spd
kts
Gust
kts
23/11:30pm 16.1 14.3 13.4 84 1.5 E 15 24 8 13 1015.1 1015.1 0.0
23/11:00pm 16.1 12.7 13.6 85 1.4 E 24 33 13 18 1015.5 1015.5 0.0
23/10:30pm 15.9 13.2 13.6 86 1.3 E 20 33 11 18 1015.4 1015.4 0.0
23/10:00pm 15.9 13.8 13.7 87 1.2 ENE 17 30 9 16 1015.8 1015.8 0.0
23/09:30pm 15.4 14.8 13.4 88 1.1 E 9 15 5 8 1015.8 1015.8 0.0
23/09:00pm 15.7 14.8 13.7 88 1.1 E 11 17 6 9 1015.7 1015.7 0.0
23/08:30pm 15.5 14.7 13.9 90 0.9 ENE 11 19 6 10 1015.6 1015.6 0.0
23/08:00pm 15.2 14.2 13.4 89 1.0 E 11 17 6 9 1015.6 1015.6 0.0
23/07:30pm 15.3 14.6 13.2 87 1.2 ESE 9 13 5 7 1015.7 1015.7 0.0
23/07:00pm 15.9 14.9 13.4 85 1.4 SE 11 15 6 8 1015.5 1015.5 0.0
23/06:30pm 16.1 14.6 13.2 83 1.6 SE 13 17 7 9 1015.6 1015.6 0.0
23/06:00pm 16.1 13.4 13.0 82 1.7 SE 19 24 10 13 1015.7 1015.7 0.0
23/05:30pm 16.6 13.8 13.3 81 1.8 SE 20 28 11 15 1015.8 1015.8 0.0
23/05:00pm 16.6 13.3 12.9 79 2.1 SE 22 30 12 16 1015.8 1015.8 0.0
23/04:30pm 16.4 12.7 12.6 78 2.1 SE 24 30 13 16 1016.3 1016.3 0.0
23/04:00pm 17.2 13.9 12.9 76 2.4 SE 22 26 12 14 1016.9 1016.9 0.0
23/03:30pm 17.3 14.6 12.8 75 2.5 SE 19 24 10 13 1017.1 1017.1 0.0
23/03:00pm 16.7 13.8 12.3 75 2.4 SE 19 24 10 13 1017.2 1017.2 0.0
23/02:30pm 16.6 14.2 12.8 78 2.1 SE 17 22 9 12 1017.7 1017.7 0.0
23/02:00pm 16.1 13.6 12.3 78 2.1 SE 17 22 9 12 1018.1 1018.1 0.0
23/01:30pm 15.8 12.9 12.2 79 2.0 SE 19 24 10 13 1018.5 1018.5 0.0
23/01:00pm 15.4 12.4 11.8 79 1.9 ESE 19 24 10 13 1019.0 1019.0 0.0
23/12:30pm 15.2 12.0 11.8 80 1.8 ESE 20 28 11 15 1019.3 1019.3 0.0
23/12:00pm 14.7 11.1 11.7 82 1.6 SE 22 32 12 17 1019.7 1019.7 0.0
23/11:30am 14.7 10.7 11.8 83 1.6 SE 24 33 13 18 1020.1 1020.1 0.0
23/11:00am 14.7 10.8 12.0 84 1.5 SE 24 33 13 18 1020.4 1020.4 0.0
23/10:30am 14.0 9.7 11.9 87 1.1 SE 26 35 14 19 1020.7 1020.7 0.0
23/10:00am 13.9 9.1 11.6 86 1.2 SE 28 35 15 19 1020.9 1020.9 0.0
23/09:30am 14.1 10.4 11.6 85 1.3 SE 22 30 12 16 1020.8 1020.8 0.0
23/09:00am 13.7 9.1 11.2 85 1.3 SE 26 35 14 19 1020.8 1020.8 0.0
23/08:30am 13.4 9.2 11.1 86 1.2 SE 24 32 13 17 1021.0 1021.0 0.0
23/08:00am 13.6 8.6 11.1 85 1.3 SE 28 35 15 19 1020.9 1020.9 0.0
23/07:30am 13.5 9.3 11.2 86 1.2 SE 24 33 13 18 1020.9 1020.9 0.0
23/07:00am 13.8 10.5 11.5 86 1.2 SE 20 33 11 18 1020.5 1020.5 0.0
23/06:30am 13.5 9.7 11.2 86 1.2 SE 22 32 12 17 1020.4 1020.4 0.0
23/06:00am 13.6 9.8 11.3 86 1.2 SE 22 32 12 17 1020.2 1020.2 0.0
23/05:30am 13.4 8.9 11.3 87 1.1 SE 26 35 14 19 1020.2 1020.2 0.0
23/05:00am 13.5 9.4 11.6 88 1.0 SE 24 32 13 17 1020.2 1020.2 0.0
23/04:30am 13.6 9.5 11.5 87 1.1 SE 24 32 13 17 1020.1 1020.1 0.0
23/04:00am 13.4 9.3 11.5 88 1.0 SSE 24 32 13 17 1020.2 1020.2 0.0
23/03:30am 13.4 9.3 11.6 89 1.0 SSE 24 35 13 19 1020.2 1020.2 0.0
23/03:00am 13.4 8.6 11.5 88 1.0 SSE 28 35 15 19 1020.4 1020.4 0.0
23/02:30am 13.5 9.1 11.6 88 1.0 SSE 26 33 14 18 1020.5 1020.5 0.0
23/02:00am 13.4 8.6 11.5 88 1.0 SSE 28 37 15 20 1020.5 1020.5 0.0
23/01:30am 13.7 9.6 11.6 87 1.1 SSE 24 32 13 17 1020.6 1020.6 0.0
23/01:00am 13.9 10.3 11.8 87 1.1 SSE 22 30 12 16 1020.8 1020.8 0.0
23/12:30am 13.6 10.3 11.5 87 1.1 SSE 20 32 11 17 1020.8 1020.8 0.0
23/12:00am 13.6 10.0 11.7 88 1.0 SSE 22 28 12 15 1020.9 1020.9 0.0
 
Date/Time
EDT
Temp
°C
App
Temp
°C
Dew
Point
Rel
Hum
%
Delta-T
°C
Wind Press
QNH
hPa
Press
MSL
hPa
Rain
since 9 am
mm
Dir
 
Spd
km/h
Gust
km/h
Spd
kts
Gust
kts
22/11:30pm 13.9 10.7 11.9 88 1.1 SSE 20 28 11 15 1020.9 1020.9 0.0
22/11:00pm 13.7 10.5 11.8 88 1.0 SSE 20 28 11 15 1020.7 1020.7 0.0
22/10:30pm 13.8 10.6 11.8 88 1.1 SSE 20 28 11 15 1020.6 1020.6 0.0
22/10:00pm 13.7 10.1 11.8 88 1.0 SSE 22 30 12 16 1020.7 1020.7 0.0
22/09:30pm 13.8 10.6 12.0 89 1.0 SSE 20 30 11 16 1020.9 1020.9 0.0
22/09:00pm 13.9 10.8 12.1 89 1.0 SSE 20 28 11 15 1020.6 1020.6 0.0
22/08:30pm 14.1 10.6 12.3 89 1.0 SSE 22 28 12 15 1020.3 1020.3 0.0
22/08:00pm 13.9 10.8 12.3 90 0.9 S 20 28 11 15 1020.0 1020.0 0.0

Other Formats:

Comma delimited format used in spreadsheet applications
http://www.bom.gov.au/fwo/IDV60801/IDV60801.94830.axf

JavaScript Object Notation format (JSON) in row-major order
http://www.bom.gov.au/fwo/IDV60801/IDV60801.94830.json